Terminal Aerodrome Forecast
Issued by NWS

Home | Current Version | Previous Version | Text Only | Print | Product List | Glossary On
Versions: 1 2 3 4 5 6 7 8 9 10 11 12 13 14 15 16 17 18
771
FTUS43 KILX 252126 AAC
TAFBMI
TAF AMD
KBMI 252126Z 2521/2618 30013G22KT P6SM VCTS BKN050CB OVC080
      TEMPO 2521/2524 4SM TSRA BR BKN030CB
     FM260100 21007KT P6SM VCSH BKN050 BKN100
     FM260500 20005KT P6SM SCT070=

USA.gov is the U.S. government's official web portal to all federal, state and local government web resources and services.